Flight Track Log - Related Links

Times and Time Zones

All times are in EST time to prevent confusion due to time zone crossing. See the BOE2 flight status page for this flight to view local times or setup timezone preferences in your user account.

Time Position Orientation Groundspeed Altitude Reporting Facility
EST Latitude Longitude Course Direction KTS MPH feet Rate Location/Type
02:24PM 47.8833 -122.2870 162° South 172 198 1,900  Level Seattle Center
02:24PM 47.8772 -122.2840 192° South 239 275 2,300 1,082 Climbing Seattle Center
02:25PM 47.8250 -122.3000 230° Southwest 238 274 3,000 712 Climbing Seattle Center
02:25PM 47.8183 -122.3120 254° West 258 297 3,000  Level Seattle Center
02:26PM 47.7975 -122.4190 271° West 244 281 3,000 700 Level Seattle Center
02:27PM 47.7992 -122.5240 282° West 244 281 4,400 1,650 Climbing Seattle Center
02:28PM 47.8133 -122.6230 285° West 244 281 6,300 1,870 Climbing Seattle Center
02:29PM 47.8172 -122.6450 291° West 253 291 6,800 1,857 Climbing Seattle Center
02:29PM 47.8286 -122.6890 294° West 256 295 7,600 2,093 Climbing Seattle Center
02:29PM 47.8381 -122.7210 289° West 249 287 8,300 2,000 Climbing Seattle Center
02:30PM 47.8550 -122.7930 292° West 265 305 9,600 1,672 Climbing Seattle Center
02:30PM 47.8644 -122.8270 291° West 260 299 10,000 1,672 Climbing Seattle Center
02:31PM 47.8833 -122.9020 295° West 270 311 11,300 1,700 Climbing Seattle Center
02:31PM 47.8931 -122.9340 287° West 272 313 11,700 2,500 Climbing Seattle Center
02:32PM 47.9094 -123.0150 299° West 278 320 13,800 2,644 Climbing Seattle Center
02:32PM 47.9192 -123.0410 288° West 272 313 14,300 2,361 Climbing Seattle Center
02:33PM 47.9378 -123.1250 298° West 282 325 16,200 2,300 Climbing Seattle Center
02:33PM 47.9436 -123.1410 289° West 272 313 16,600 2,149 Climbing Seattle Center
02:34PM 47.9694 -123.2510 291° West 286 329 18,600 2,162 Climbing Seattle Center
02:35PM 47.9975 -123.3610 289° West 290 334 20,600 1,983 Climbing Seattle Center
02:36PM 48.0250 -123.4810 291° West 300 345 22,600 1,116 Climbing Seattle Center
02:37PM 48.0564 -123.6010 291° West 297 342 23,000 188 Climbing Seattle Center
02:38PM 48.0861 -123.7150 288° West 297 342 23,000  Level Seattle Center
02:39PM 48.1114 -123.8290 291° West 292 336 23,000  Level Seattle Center
02:40PM 48.1408 -123.9430 288° West 292 336 23,000  Level Seattle Center
02:41PM 48.1658 -124.0570 290° West 292 336 23,000  Level Seattle Center
02:42PM 48.1947 -124.1740 290° West 292 336 23,000  Level Seattle Center
02:43PM 48.2236 -124.2950 289° West 297 342 23,000 100 Level Seattle Center
02:44PM 48.2539 -124.4260 287° West 302 348 23,200 655 Climbing Seattle Center
02:45PM 48.2767 -124.5370 287° West 307 353 24,300 950 Climbing Seattle Center
02:46PM 48.3008 -124.6570 258° West 307 353 25,100 350 Climbing Seattle Center
02:47PM 48.2831 -124.7840 235° Southwest 299 344 25,000 -50 Descending Seattle Center
02:48PM 48.2283 -124.9000 196° South 305 351 25,000  Level Seattle Center
02:49PM 48.1347 -124.9410 174° South 308 354 25,000  Level Seattle Center
02:50PM 48.0356 -124.9250 174° South 313 360 25,000  Level Seattle Center
02:51PM 47.9322 -124.9090 173° South 347 399 25,000  Level Seattle Center
02:52PM 47.8289 -124.8890 172° South 359 413 25,000  Level Seattle Center
02:53PM 47.7300 -124.8680 160° South 366 421 25,000  Level Seattle Center
02:54PM 47.6342 -124.8160 155° Southeast 366 421 25,000  Level Seattle Center
02:55PM 47.5392 -124.7510 151° Southeast 366 421 25,000  Level Seattle Center
02:56PM 47.4486 -124.6760 144° Southeast 371 427 25,000  Level Seattle Center
02:57PM 47.3647 -124.5850 145° Southeast 376 433 25,000  Level Seattle Center
02:58PM 47.2867 -124.5050 145° Southeast 368 423 25,000  Level Seattle Center
02:59PM 47.2128 -124.4280 146° Southeast 344 396 25,000  Level Seattle Center
03:00PM 47.1367 -124.3520 143° Southeast 338 389 25,000  Level Seattle Center
03:01PM 47.0628 -124.2690 145° Southeast 332 382 25,000  Level Seattle Center
03:02PM 46.9886 -124.1930 162° South 332 382 25,000  Level Seattle Center
03:03PM 46.8944 -124.1490 178° South 325 374 25,000  Level Seattle Center
03:04PM 46.8050 -124.1450 178° South 320 368 25,000  Level Seattle Center
03:05PM 46.7136 -124.1410 180° South 325 374 25,000  Level Seattle Center
03:06PM 46.6303 -124.1410 178° South 335 386 25,000  Level Seattle Center
03:07PM 46.5386 -124.1360 181° South 335 386 25,000  Level Seattle Center
03:08PM 46.4489 -124.1380 178° South 330 380 25,000  Level Seattle Center
03:09PM 46.3575 -124.1340 177° South 330 380 25,000  Level Seattle Center
03:10PM 46.2639 -124.1270 180° South 330 380 25,000  Level Seattle Center
03:11PM 46.1744 -124.1260 177° South 330 380 25,000  Level Seattle Center
03:12PM 46.0808 -124.1190 180° South 330 380 25,000  Level Seattle Center
03:13PM 45.9872 -124.1180 178° South 330 380 25,000  Level Seattle Center
03:14PM 45.8936 -124.1130 178° South 330 380 25,000  Level Seattle Center
03:15PM 45.8019 -124.1090 180° South 330 380 25,000  Level Seattle Center
03:16PM 45.7103 -124.1080 178° South 330 380 25,000  Level Seattle Center
03:17PM 45.6167 -124.1040 178° South 330 380 25,000  Level Seattle Center
03:18PM 45.5211 -124.1000 178° South 330 380 25,000  Level Seattle Center
03:19PM 45.4275 -124.0960 178° South 335 386 25,000  Level Seattle Center
03:20PM 45.3358 -124.0920 178° South 335 386 25,000  Level Seattle Center
03:21PM 45.2422 -124.0880 178° South 335 386 25,000  Level Seattle Center
03:22PM 45.1486 -124.0840 180° South 335 386 25,000  Level Seattle Center
03:23PM 45.0547 -124.0830 178° South 335 386 25,000  Level Seattle Center
03:24PM 44.9631 -124.0790 178° South 340 391 25,000  Level Seattle Center
03:25PM 44.8694 -124.0750 178° South 340 391 25,000  Level Seattle Center
03:26PM 44.7781 -124.0710 180° South 340 391 25,000  Level Seattle Center
03:27PM 44.6842 -124.0700 177° South 340 391 25,000  Level Seattle Center
03:28PM 44.5906 -124.0630 182° South 340 391 25,000  Level Seattle Center
03:29PM 44.4944 -124.0680 182° South 347 399 25,000  Level Seattle Center
03:30PM 44.4006 -124.0730 182° South 347 399 25,000  Level Seattle Center
03:31PM 44.3064 -124.0770 181° South 347 399 25,000  Level Seattle Center
03:32PM 44.2147 -124.0790 182° South 347 399 25,000  Level Seattle Center
03:33PM 44.1228 -124.0840 182° South 347 399 25,000  Level Seattle Center
03:34PM 44.0331 -124.0890 182° South 341 392 25,000  Level Seattle Center
03:35PM 43.9411 -124.0940 182° South 336 387 25,000  Level Seattle Center
03:36PM 43.8428 -124.0990 181° South 331 381 25,000  Level Seattle Center
03:37PM 43.7511 -124.1010 182° South 331 381 25,000  Level Seattle Center
03:38PM 43.6592 -124.1060 182° South 331 381 25,000  Level Seattle Center
03:39PM 43.5672 -124.1100 182° South 331 381 25,000  Level Seattle Center
03:40PM 43.4772 -124.1150 181° South 331 381 25,000  Level Seattle Center
03:41PM 43.3856 -124.1180 180° South 331 381 25,000  Level Seattle Center
03:42PM 43.2917 -124.1190 182° South 331 381 25,000  Level Seattle Center
03:43PM 43.1933 -124.1240 183° South 338 389 25,000  Level Seattle Center
03:44PM 43.0931 -124.1310 181° South 359 413 25,000  Level Seattle Center
03:45PM 42.9867 -124.1340 182° South 370 426 25,000  Level Seattle Center
03:46PM 42.8781 -124.1380 180° South 383 441 25,000  Level Seattle Center
03:47PM 42.7717 -124.1390 184° South 388 447 25,000  Level Seattle Center
03:48PM 42.6650 -124.1480 180° South 388 447 25,000  Level Seattle Center
03:49PM 42.5564 -124.1490 183° South 388 447 25,000  Level Seattle Center
03:50PM 42.4478 -124.1580 180° South 388 447 25,000  Level Seattle Center
03:51PM 42.3392 -124.1590 184° South 388 447 25,000  Level Seattle Center
03:52PM 42.2306 -124.1680 182° South 388 447 25,000 -100 Level Seattle Center
03:53PM 42.1261 -124.1720 180° South 388 447 24,800 -496 Descending Seattle Center
03:54PM 42.0239 -124.1730 183° South 383 441 24,000 -1,050 Descending Seattle Center
03:55PM 41.9236 -124.1800 182° South 383 441 22,700 -1,261 Descending Seattle Center
03:56PM 41.8253 -124.1850 182° South 372 428 21,500 -1,388 Descending Seattle Center
03:57PM 41.7250 -124.1890 180° South 367 422 19,900 -1,438 Descending Seattle Center
03:58PM 41.6292 -124.1900 184° South 361 415 18,600 -1,261 Descending Seattle Center
03:59PM 41.5331 -124.1980 182° South 356 410 17,400 -1,261 Descending Seattle Center
04:00PM 41.4369 -124.2020 182° South 351 404 16,100 -1,200 Descending Seattle Center
04:01PM 41.3428 -124.2060 181° South 346 398 15,000 -600 Descending Seattle Center
04:02PM 41.2553 -124.2090 181° South 341 392 14,900 -50 Descending Seattle Center
04:03PM 41.1675 -124.2110 182° South 328 377 14,900  Level Seattle Center
04:04PM 41.0797 -124.2160 183° South 323 372 14,900  Level Seattle Center
04:05PM 40.9942 -124.2210 181° South 318 366 14,900  Level Seattle Center
04:06PM 40.9086 -124.2230 183° South 318 366 14,900  Level Seattle Center
04:07PM 40.8292 -124.2290 186° South 308 354 14,900  Level Seattle Center
04:08PM 40.7494 -124.2400 252° West 303 349 14,900  Level Seattle Center
04:09PM 40.7297 -124.3180 325° Northwest 223 257 14,900  Level Seattle Center
04:10PM 40.7781 -124.3620 33° Northeast 129 148 14,900  Level Seattle Center
04:11PM 40.8297 -124.3170 46° Northeast 123 142 14,900  Level Seattle Center
04:12PM 40.8783 -124.2510 20° North 174 200 14,900  Level Seattle Center
04:13PM 40.9358 -124.2230 North 205 236 14,900  Level Seattle Center
04:14PM 40.9942 -124.2210 North 205 236 14,900  Level Seattle Center
04:15PM 41.0547 -124.2170 North 210 242 14,900  Level Seattle Center
04:16PM 41.1111 -124.2150 North 210 242 14,900  Level Seattle Center
04:17PM 41.1697 -124.2110 North 210 242 14,900  Level Seattle Center
04:18PM 41.2303 -124.2100 North 210 242 14,900  Level Seattle Center
04:19PM 41.2908 -124.2060 North 215 247 14,900  Level Seattle Center
04:20PM 41.3492 -124.2040 North 215 247 14,900  Level Seattle Center
04:21PM 41.4078 -124.2000 North 215 247 14,900  Level Seattle Center
04:22PM 41.4661 -124.1980 North 215 247 14,900  Level Seattle Center
04:23PM 41.5267 -124.1970 North 215 247 14,900  Level Seattle Center
04:24PM 41.5872 -124.1930 North 215 247 14,900  Level Seattle Center
04:25PM 41.6481 -124.1890 North 215 247 14,900  Level Seattle Center
04:26PM 41.7064 -124.1880 North 215 247 14,900  Level Seattle Center
04:27PM 41.7669 -124.1860 North 215 247 14,900  Level Seattle Center
04:28PM 41.8297 -124.1820 North 215 247 14,900  Level Seattle Center
04:29PM 41.8922 -124.1810 North 215 247 14,900  Level Seattle Center
04:30PM 41.9550 -124.1770 North 215 247 14,900  Level Seattle Center
04:31PM 42.0175 -124.1730 North 215 247 14,900  Level Seattle Center
04:32PM 42.0761 -124.1710 North 215 247 14,900  Level Seattle Center
04:33PM 42.1242 -124.1690 356° North 200 230 14,900  Level Seattle Center
04:34PM 42.1594 -124.1720 North 156 180 14,900  Level Seattle Center
04:35PM 42.1950 -124.1660 North 134 154 14,900  Level Seattle Center
04:36PM 42.2328 -124.1630 North 128 147 14,900  Level Seattle Center
04:37PM 42.2681 -124.1620 North 123 142 14,900  Level Seattle Center
04:38PM 42.3039 -124.1590 356° North 123 142 14,900  Level Seattle Center
04:39PM 42.3392 -124.1620 North 123 142 14,900  Level Seattle Center
04:40PM 42.3747 -124.1590 360° North 123 142 14,900  Level Seattle Center
04:41PM 42.4142 -124.1590 North 123 142 14,900  Level Seattle Center
04:42PM 42.4603 -124.1540 North 140 161 14,900  Level Seattle Center
04:43PM 42.5169 -124.1490 North 175 201 14,900  Level Seattle Center
04:44PM 42.5794 -124.1480 North 197 227 14,900  Level Seattle Center
04:45PM 42.6422 -124.1440 North 219 252 14,900 50 Level Seattle Center
04:46PM 42.7028 -124.1430 359° North 219 252 15,000 50 Climbing Seattle Center
04:47PM 42.7653 -124.1440 North 219 252 15,000  Level Seattle Center
04:48PM 42.8281 -124.1370 North 219 252 15,000  Level Seattle Center
04:49PM 42.8928 -124.1360 359° North 219 252 15,000  Level Seattle Center
04:50PM 42.9572 -124.1380 North 219 252 15,000  Level Seattle Center
04:51PM 43.0283 -124.1340 North 237 273 15,000  Level Seattle Center
04:52PM 43.1075 -124.1320 North 264 304 15,000  Level Seattle Center
04:53PM 43.1869 -124.1260 North 280 322 15,000  Level Seattle Center
04:54PM 43.2686 -124.1230 North 285 328 15,000  Level Seattle Center
04:55PM 43.3481 -124.1180 360° North 285 328 15,000  Level Seattle Center
04:56PM 43.4314 -124.1180 North 291 335 15,000  Level Seattle Center
04:57PM 43.5128 -124.1120 North 291 335 15,000  Level Seattle Center
04:58PM 43.5942 -124.1090 North 291 335 15,000  Level Seattle Center
04:59PM 43.6675 -124.1060 North 291 335 15,000  Level Seattle Center
05:00PM 43.7406 -124.1030 North 291 335 15,000 -650 Level Seattle Center
05:01PM 43.8242 -124.0970 North 285 328 13,700 -1,300 Descending Seattle Center
05:02PM 43.9033 -124.0940 North 279 321 12,400 -1,100 Descending Seattle Center
05:03PM 43.9786 -124.0910 North 274 315 11,500 -1,050 Descending Seattle Center
05:04PM 44.0497 -124.0880 North 264 304 10,300 -750 Descending Seattle Center
05:05PM 44.1167 -124.0840 North 252 290 10,000 -150 Descending Seattle Center
05:06PM 44.1769 -124.0820 North 233 268 10,000  Level Seattle Center
05:07PM 44.2314 -124.0810 North 211 243 10,000  Level Seattle Center
05:08PM 44.2753 -124.0780 North 182 209 10,000  Level Seattle Center
05:09PM 44.3211 -124.0760 North 169 194 10,000  Level Seattle Center
05:10PM 44.3650 -124.0730 North 159 183 10,000  Level Seattle Center
05:11PM 44.4111 -124.0700 359° North 159 183 10,000  Level Seattle Center
05:12PM 44.4569 -124.0710 North 159 183 10,000  Level Seattle Center
05:13PM 44.5031 -124.0660 North 159 183 10,000 -300 Level Seattle Center
05:14PM 44.5572 -124.0640 360° North 166 191 9,400 -1,000 Descending Seattle Center
05:15PM 44.6072 -124.0640 357° North 177 204 8,000 -1,300 Descending Seattle Center
05:16PM 44.6572 -124.0680 North 177 204 6,800 -1,240 Descending Seattle Center
05:17PM 44.7072 -124.0660 357° North 177 204 5,500 -900 Descending Seattle Center
05:18PM 44.7508 -124.0690 357° North 171 197 5,000 -252 Descending Seattle Center
05:19PM 44.7883 -124.0720 360° North 151 174 5,000  Level Seattle Center
05:20PM 44.8281 -124.0720 360° North 139 160 5,000  Level Seattle Center
05:21PM 44.8656 -124.0720 358° North 139 160 5,000  Level Seattle Center
05:22PM 44.9050 -124.0740 359° North 139 160 5,000  Level Seattle Center
05:23PM 44.9467 -124.0750 357° North 139 160 5,000  Level Seattle Center
05:24PM 45.0047 -124.0790 359° North 164 189 5,000  Level Seattle Center
05:25PM 45.0778 -124.0810 358° North 218 251 5,000  Level Seattle Center
05:26PM 45.1547 -124.0840 358° North 257 296 5,000  Level Seattle Center
05:27PM 45.2297 -124.0870 359° North 270 311 5,000  Level Seattle Center
05:28PM 45.3047 -124.0890 358° North 270 311 5,000  Level Seattle Center
05:29PM 45.3794 -124.0920 358° North 270 311 5,000  Level Seattle Center
05:30PM 45.4567 -124.0950 358° North 270 311 5,000  Level Seattle Center
05:31PM 45.5317 -124.0980 359° North 270 311 5,000 500 Level Seattle Center
05:32PM 45.6044 -124.1000 358° North 270 311 6,000 1,311 Climbing Seattle Center
05:33PM 45.6772 -124.1030 358° North 270 311 7,600 1,488 Climbing Seattle Center
05:34PM 45.7522 -124.1060 358° North 270 311 9,000 1,450 Climbing Seattle Center
05:35PM 45.8311 -124.1090 357° North 275 316 10,500 1,513 Climbing Seattle Center
05:36PM 45.9081 -124.1140 358° North 275 316 12,000 1,400 Climbing Seattle Center
05:37PM 45.9872 -124.1180 360° North 275 316 13,300 1,240 Climbing Seattle Center
05:38PM 46.0664 -124.1180 357° North 275 316 14,500 843 Climbing Seattle Center
05:39PM 46.1475 -124.1240 359° North 281 323 15,000 252 Climbing Seattle Center
05:40PM 46.2306 -124.1270 360° North 288 331 15,000  Level Seattle Center
05:41PM 46.3139 -124.1280 357° North 293 337 15,000  Level Seattle Center
05:42PM 46.3950 -124.1340 359° North 293 337 15,000  Level Seattle Center
05:43PM 46.4783 -124.1370 North 288 331 15,000  Level Seattle Center
05:44PM 46.5617 -124.1350 357° North 288 331 15,000  Level Seattle Center
05:45PM 46.6428 -124.1410 360° North 288 331 15,000  Level Seattle Center
05:46PM 46.7258 -124.1420 360° North 294 338 15,000  Level Seattle Center
05:47PM 46.8175 -124.1430 357° North 299 344 15,000  Level Seattle Center
05:48PM 46.8986 -124.1490 North 291 335 15,000  Level Seattle Center
05:49PM 46.9778 -124.1470 359° North 285 328 15,000  Level Seattle Center
05:50PM 47.0569 -124.1500 360° North 285 328 15,000  Level Seattle Center
05:51PM 47.1361 -124.1500 360° North 285 328 15,000  Level Seattle Center
05:52PM 47.2150 -124.1500 358° North 285 328 15,000  Level Seattle Center
05:53PM 47.2961 -124.1540 360° North 285 328 15,000  Level Seattle Center
05:54PM 47.3794 -124.1540 360° North 290 334 15,000  Level Seattle Center
05:55PM 47.4628 -124.1550 360° North 295 339 15,000  Level Seattle Center
05:56PM 47.5439 -124.1550 North 290 334 15,000  Level Seattle Center
05:57PM 47.6253 -124.1530 North 285 328 15,000 -200 Level Seattle Center
05:58PM 47.7086 -124.1500 360° North 291 335 14,600 -150 Descending Seattle Center
05:59PM 47.7961 -124.1510 North 296 341 14,700 -50 Climbing Seattle Center
06:00PM 47.8794 -124.1490 357° North 296 341 14,500 -100 Descending Seattle Center
06:01PM 47.9644 -124.1560 353° North 296 341 14,500  Level Seattle Center
06:02PM 48.0492 -124.1720 357° North 296 341 14,500 50 Level Seattle Center
06:03PM 48.1303 -124.1790 60° Northeast 296 341 14,600 -300 Climbing Seattle Center
06:04PM 48.1692 -124.0760 100° East 235 270 13,900 -303 Descending Seattle Center
06:05PM 48.1550 -123.9510 99° East 235 270 14,000 50 Climbing Seattle Center
06:06PM 48.1408 -123.8220 98° East 273 314 14,000  Level Seattle Center
06:07PM 48.1283 -123.6970 100° East 286 329 14,000  Level Seattle Center
06:08PM 48.1136 -123.5710 98° East 297 342 14,000  Level Seattle Center
06:09PM 48.1011 -123.4430 100° East 302 348 14,000  Level Seattle Center
06:10PM 48.0861 -123.3180 99° East 302 348 14,000  Level Seattle Center
06:11PM 48.0747 -123.2080 100° East 302 348 14,000 -250 Level Seattle Center
06:12PM 48.0597 -123.0800 100° East 302 348 13,500 -832 Descending Seattle Center
06:13PM 48.0478 -122.9830 94° East 310 357 12,600 -1,000 Descending Seattle Center
06:13PM 48.0464 -122.9550 104° East 302 348 12,500 -612 Descending Seattle Center
06:14PM 48.0356 -122.8890 103° East 300 345 12,100 -800 Descending Seattle Center
06:14PM 48.0286 -122.8420 151° Southeast 290 334 11,700 -985 Descending Seattle Center
06:15PM 47.9797 -122.8020 129° Southeast 268 308 11,000 -700 Descending Seattle Center
06:15PM 47.9678 -122.7800 155° Southeast 264 304 11,000 -393 Level Seattle Center
06:16PM 47.9144 -122.7430 144° Southeast 264 304 10,600 -984 Descending Seattle Center
06:16PM 47.8944 -122.7210 153° Southeast 260 299 10,000 -1,418 Descending Seattle Center
06:17PM 47.8556 -122.6910 142° Southeast 267 307 9,300 -1,322 Descending Seattle Center
06:17PM 47.8333 -122.6650 149° Southeast 265 305 8,700 -1,600 Descending Seattle Center
06:18PM 47.7967 -122.6320 148° Southeast 261 300 7,700 -2,200 Descending Seattle Center
06:18PM 47.7722 -122.6090 151° Southeast 265 305 6,500 -2,509 Descending Seattle Center
06:19PM 47.7394 -122.5820 146° Southeast 249 287 5,400 -2,200 Descending Seattle Center
06:19PM 47.7131 -122.5560 152° Southeast 255 293 4,300 -2,066 Descending Seattle Center
06:20PM 47.6844 -122.5330 136° Southeast 239 275 3,300 -2,000 Descending Seattle Center
06:20PM 47.6622 -122.5010 116° Southeast 242 278 2,300 -1,164 Descending Seattle Center
06:21PM 47.6467 -122.4540 109° East 211 243 2,000 -300 Descending Seattle Center
06:21PM 47.6411 -122.4300 123° Southeast 201 231 2,000 -218 Level Seattle Center
06:22PM 47.6272 -122.3980 112° Southeast 169 194 1,800 -300 Descending Seattle Center
06:22PM 47.6194 -122.3700 160° South 188 216 1,700 -556 Descending Seattle Center
06:23PM 47.6011 -122.3600 152° Southeast 146 168 1,300 -600 Descending Seattle Center
06:23PM 47.5847 -122.3470 160° South 148 170 1,100 -689 Descending Seattle Center
06:24PM 47.5661 -122.3370 144° Southeast 146 168 600 -900 Descending Seattle Center
06:24PM 47.5478 -122.3170 144° Southeast 142 163 200 -126 Descending Seattle Center
06:25PM 47.5275 -122.2950 154° Southeast 142 163 400 6,900 Climbing Seattle Center
06:26PM 47.4783 -122.2590 153° Southeast 142 163 14,000 6,800 Climbing Seattle Center
06:27PM 47.4433 -122.2330 157° South 142 163 14,000  Level Seattle Center
06:28PM 47.4064 -122.2100 155° Southeast 142 163 14,000  Level Seattle Center
06:29PM 47.3778 -122.1900 360° North 142 163 14,000  Level Seattle Center
06:30PM 47.3778 -122.1900 360° North 142 163 14,000  Level Seattle Center
06:31PM 47.3778 -122.1900 360° North 142 163 14,000  Level Seattle Center

Login

Don't have an account? Register now (free) for customized features, flight alerts, and more!